Los Altos, California
Current Conditions -  °F | °C
As of 3:56 AM on Tuesday 27 Jan 2015 (Local Time) from KNUQ Reporting Station
Overcast Overcast  
Wind Chill: 62°   Ceiling: 11000
Heat Index: 62°   Visibility: 10mi
Dew Point: 44°   Wind: 8mph
Humidity: 52%   Direction: 150°SSE
Pressure: 30.06"   Gusts: NA
Location:  37.38°N, 122.11°W
Report Text: KNUQ 271156Z 15007KT 10SM OVC110 17/07 A3006 RMK AO2 SLP182 T01670067 10172 20117 51012
Loading
Personal Weather Stations






























Interactive Weather Map New forecast layout! Learn more

10-Day Weather Forecast

Advertisements
Track Severe Weather on mobile